createdAt,value
2019-03-26T00:05:06.743Z,3.34
2019-03-26T00:10:31.939Z,3.54
2019-03-26T00:15:58.074Z,3.59
2019-03-26T00:21:28.285Z,3.50
2019-03-26T00:26:52.658Z,3.30
2019-03-26T00:32:17.972Z,3.09
2019-03-26T00:37:42.160Z,2.95
2019-03-26T00:43:07.865Z,2.87
2019-03-26T00:48:32.235Z,2.87
2019-03-26T00:53:56.450Z,2.74
2019-03-26T00:59:20.571Z,2.65
2019-03-26T01:04:45.104Z,2.48
2019-03-26T01:10:15.908Z,2.40
2019-03-26T01:15:40.460Z,2.24
2019-03-26T01:21:06.249Z,2.20
2019-03-26T01:26:30.814Z,2.15
2019-03-26T01:31:55.604Z,2.12
2019-03-26T01:37:20.400Z,1.98
2019-03-26T01:42:45.880Z,1.89
2019-03-26T01:48:11.019Z,1.80
2019-03-26T01:53:36.964Z,1.72
2019-03-26T01:59:02.619Z,1.64
2019-03-26T02:04:26.743Z,1.52
2019-03-26T02:09:51.936Z,1.38
2019-03-26T02:15:32.311Z,1.24
2019-03-26T02:20:56.861Z,1.11
2019-03-26T02:26:21.041Z,1.09
2019-03-26T02:31:46.821Z,1.07
2019-03-26T02:37:11.411Z,1.01
2019-03-26T02:42:38.072Z,0.92
2019-03-26T02:48:04.068Z,0.92
2019-03-26T02:53:28.778Z,0.75
2019-03-26T02:58:53.626Z,0.68
2019-03-26T03:04:17.908Z,0.77
2019-03-26T03:09:43.362Z,0.78
2019-03-26T03:15:08.629Z,0.89
2019-03-26T03:20:32.896Z,1.10
2019-03-26T03:25:58.369Z,1.15
2019-03-26T03:31:23.674Z,1.12
2019-03-26T03:36:49.169Z,1.09
2019-03-26T03:42:14.373Z,1.02
2019-03-26T03:47:40.313Z,0.95
2019-03-26T03:53:06.603Z,0.90
2019-03-26T03:58:32.763Z,0.78
2019-03-26T04:03:57.134Z,0.69
2019-03-26T04:09:22.390Z,0.68
2019-03-26T04:14:47.399Z,0.86
2019-03-26T04:20:12.688Z,0.79
2019-03-26T04:25:37.890Z,0.79
2019-03-26T04:31:02.437Z,0.63
2019-03-26T04:36:27.935Z,0.63
2019-03-26T04:41:53.726Z,0.54
2019-03-26T04:47:18.707Z,0.71
2019-03-26T04:52:44.206Z,0.73
2019-03-26T04:58:09.656Z,0.77
2019-03-26T05:03:34.120Z,0.78
2019-03-26T05:08:58.559Z,0.83
2019-03-26T05:14:23.823Z,0.92
2019-03-26T05:19:48.986Z,1.26
2019-03-26T05:25:14.792Z,1.49
2019-03-26T05:30:39.536Z,1.71
2019-03-26T05:36:05.033Z,1.95
2019-03-26T05:41:29.987Z,2.39
2019-03-26T05:46:55.216Z,2.65
2019-03-26T05:52:20.247Z,2.64
2019-03-26T05:57:45.464Z,2.60
2019-03-26T06:03:11.019Z,2.54
2019-03-26T06:08:36.052Z,2.57
2019-03-26T06:14:01.066Z,2.65
2019-03-26T06:19:25.666Z,2.76
2019-03-26T06:24:51.213Z,2.87
2019-03-26T06:30:16.320Z,3.08
2019-03-26T06:35:41.129Z,3.29
2019-03-26T06:41:06.313Z,3.46
2019-03-26T06:46:31.675Z,3.63
2019-03-26T06:51:56.366Z,3.72
2019-03-26T06:57:20.834Z,4.24
2019-03-26T07:02:44.990Z,4.22
2019-03-26T07:08:10.232Z,4.29
2019-03-26T07:13:35.180Z,4.37
2019-03-26T07:19:00.361Z,4.58
2019-03-26T07:24:25.034Z,4.70
2019-03-26T07:29:49.982Z,4.75
2019-03-26T07:35:14.971Z,4.89
2019-03-26T07:40:39.841Z,4.92
2019-03-26T07:46:04.736Z,4.97
2019-03-26T07:51:29.340Z,4.99
2019-03-26T07:56:54.620Z,6.12
2019-03-26T08:02:19.888Z,6.65
2019-03-26T08:07:57.477Z,7.39
2019-03-26T08:13:11.430Z,6.91
2019-03-26T08:18:36.822Z,6.94
2019-03-26T08:24:01.478Z,6.91
2019-03-26T08:29:26.398Z,6.83
2019-03-26T08:34:51.025Z,7.45
2019-03-26T08:40:17.316Z,7.94
2019-03-26T08:45:41.826Z,8.43
2019-03-26T08:51:07.705Z,9.43
2019-03-26T08:56:32.101Z,8.33
2019-03-26T09:01:56.284Z,7.75
2019-03-26T09:07:20.638Z,7.77
2019-03-26T09:12:45.989Z,6.65
2019-03-26T09:18:11.155Z,6.91
2019-03-26T09:23:35.473Z,7.62
2019-03-26T09:29:00.904Z,8.12
2019-03-26T09:34:26.493Z,7.75
2019-03-26T09:39:51.194Z,7.18
2019-03-26T09:45:16.537Z,7.37
2019-03-26T09:50:41.656Z,7.12
2019-03-26T09:56:06.186Z,7.79
2019-03-26T10:01:30.969Z,7.75
2019-03-26T10:06:56.137Z,8.28
2019-03-26T10:12:20.703Z,8.34
2019-03-26T10:17:45.890Z,8.06
2019-03-26T10:23:10.059Z,7.94
2019-03-26T10:28:35.094Z,7.53
2019-03-26T10:34:00.902Z,8.91
2019-03-26T10:39:26.068Z,8.02
2019-03-26T10:44:50.323Z,8.13
2019-03-26T10:50:15.293Z,7.82
2019-03-26T10:55:40.795Z,7.52
2019-03-26T11:01:06.212Z,7.52
2019-03-26T11:06:31.600Z,7.36
2019-03-26T11:11:57.134Z,6.54
2019-03-26T11:17:21.959Z,7.11
2019-03-26T11:22:47.394Z,7.66
2019-03-26T11:28:13.978Z,8.45
2019-03-26T11:33:39.538Z,8.23
2019-03-26T11:39:05.465Z,7.76
2019-03-26T11:44:30.846Z,7.63
2019-03-26T11:49:56.090Z,7.78
2019-03-26T11:55:21.964Z,7.50
2019-03-26T12:00:47.363Z,7.28
2019-03-26T12:06:12.349Z,7.47
2019-03-26T12:11:36.772Z,7.83
2019-03-26T12:17:01.537Z,7.82
2019-03-26T12:22:27.197Z,7.81
2019-03-26T12:27:51.346Z,7.84
2019-03-26T12:33:16.706Z,7.02
2019-03-26T12:38:43.026Z,6.86
2019-03-26T12:44:07.411Z,6.66
2019-03-26T12:49:31.836Z,6.38
2019-03-26T12:54:56.002Z,6.17
2019-03-26T13:00:24.237Z,6.70
2019-03-26T13:05:48.709Z,8.12
2019-03-26T13:11:17.098Z,7.96
2019-03-26T13:16:41.574Z,7.71
2019-03-26T13:22:06.621Z,7.51
2019-03-26T13:27:31.981Z,7.52
2019-03-26T13:32:57.487Z,6.94
2019-03-26T13:38:23.865Z,6.52
2019-03-26T13:43:48.898Z,6.46
2019-03-26T13:49:13.757Z,6.48
2019-03-26T13:54:38.913Z,6.99
2019-03-26T14:00:03.913Z,7.35
2019-03-26T14:05:29.467Z,8.65
2019-03-26T14:10:54.126Z,8.26
2019-03-26T14:16:19.231Z,8.40
2019-03-26T14:21:44.224Z,7.86
2019-03-26T14:27:08.553Z,6.88
2019-03-26T14:32:33.635Z,6.54
2019-03-26T14:37:58.149Z,6.23
2019-03-26T14:43:23.376Z,5.61
2019-03-26T14:48:47.741Z,5.41
2019-03-26T14:54:12.844Z,5.57
2019-03-26T14:59:37.860Z,5.64
2019-03-26T15:05:02.070Z,6.30
2019-03-26T15:10:27.432Z,6.67
2019-03-26T15:15:53.138Z,7.26
2019-03-26T15:21:18.327Z,7.93
2019-03-26T15:26:42.575Z,8.54
2019-03-26T15:32:07.958Z,9.08
2019-03-26T15:37:33.219Z,9.39
2019-03-26T15:42:57.671Z,9.91
2019-03-26T15:48:22.173Z,9.04
2019-03-26T15:53:46.560Z,9.13
2019-03-26T15:59:11.267Z,9.06
2019-03-26T16:04:36.155Z,9.12
2019-03-26T16:10:00.503Z,9.32
2019-03-26T16:15:24.843Z,9.35
2019-03-26T16:20:49.849Z,8.90
2019-03-26T16:26:14.726Z,8.96
2019-03-26T16:31:39.668Z,8.99
2019-03-26T16:37:04.108Z,8.45
2019-03-26T16:42:30.579Z,8.02
2019-03-26T16:47:55.420Z,7.85
2019-03-26T16:53:21.948Z,7.75
2019-03-26T16:58:46.731Z,7.61
2019-03-26T17:04:11.143Z,7.56
2019-03-26T17:09:36.498Z,7.48
2019-03-26T17:15:01.532Z,7.39
2019-03-26T17:20:26.036Z,7.36
2019-03-26T17:25:51.110Z,7.35
2019-03-26T17:31:19.063Z,7.30
2019-03-26T17:36:44.641Z,7.32
2019-03-26T17:42:17.090Z,7.17
2019-03-26T17:47:34.875Z,6.98
2019-03-26T17:52:59.151Z,6.90
2019-03-26T17:58:24.093Z,6.86
2019-03-26T18:03:50.456Z,6.65
2019-03-26T18:09:15.340Z,6.65
2019-03-26T18:14:40.947Z,6.62
2019-03-26T18:20:11.009Z,6.66
2019-03-26T18:25:35.914Z,6.66
2019-03-26T18:31:01.034Z,6.62
2019-03-26T18:36:25.602Z,6.55
2019-03-26T18:41:49.880Z,6.49
2019-03-26T18:47:14.085Z,6.49
2019-03-26T18:52:38.978Z,6.40
2019-03-26T18:58:03.783Z,6.27
2019-03-26T19:03:28.800Z,6.16
2019-03-26T19:08:53.945Z,6.19
2019-03-26T19:14:19.248Z,6.19
2019-03-26T19:19:43.890Z,6.13
2019-03-26T19:25:08.972Z,6.10
2019-03-26T19:30:34.094Z,6.07
2019-03-26T19:35:58.162Z,6.06
2019-03-26T19:41:22.427Z,6.05
2019-03-26T19:46:47.526Z,6.01
2019-03-26T19:52:11.963Z,5.96
2019-03-26T19:57:36.121Z,5.90
2019-03-26T20:03:00.285Z,5.90
2019-03-26T20:08:26.687Z,5.91
2019-03-26T20:13:51.423Z,5.86
2019-03-26T20:19:16.697Z,5.87
2019-03-26T20:24:41.967Z,5.85
2019-03-26T20:30:09.199Z,5.82
2019-03-26T20:35:34.159Z,5.76
2019-03-26T20:41:01.191Z,5.71
2019-03-26T20:46:26.449Z,5.62
2019-03-26T20:51:56.691Z,5.59
2019-03-26T20:57:21.247Z,5.58
2019-03-26T21:02:45.607Z,5.55
2019-03-26T21:08:10.984Z,5.47
2019-03-26T21:13:35.925Z,5.38
2019-03-26T21:19:00.382Z,5.26
2019-03-26T21:24:25.627Z,5.10
2019-03-26T21:29:50.523Z,4.99
2019-03-26T21:35:15.361Z,4.93
2019-03-26T21:40:40.646Z,4.89
2019-03-26T21:46:05.158Z,4.82
2019-03-26T21:51:29.208Z,4.78
2019-03-26T21:56:53.529Z,4.78
2019-03-26T22:02:18.072Z,4.70
2019-03-26T22:07:43.167Z,4.55
2019-03-26T22:13:07.524Z,4.42
2019-03-26T22:18:32.781Z,4.33
2019-03-26T22:23:58.436Z,4.28
2019-03-26T22:29:23.558Z,4.22
2019-03-26T22:34:49.111Z,4.23
2019-03-26T22:40:15.747Z,4.10
2019-03-26T22:45:40.854Z,4.00
2019-03-26T22:51:05.903Z,3.89
2019-03-26T22:56:31.271Z,3.80
2019-03-26T23:01:56.887Z,3.66
2019-03-26T23:07:21.385Z,3.60
2019-03-26T23:12:46.732Z,3.59
2019-03-26T23:18:16.599Z,3.46
2019-03-26T23:23:41.036Z,3.48
2019-03-26T23:29:08.067Z,3.43
2019-03-26T23:34:31.725Z,3.35
2019-03-26T23:39:56.126Z,3.29
2019-03-26T23:45:20.692Z,3.17
2019-03-26T23:50:45.485Z,3.11
2019-03-26T23:56:10.413Z,3.07
